createdAt,value
2018-12-18T00:01:07.051Z,1.40
2018-12-18T00:03:39.477Z,1.50
2018-12-18T00:06:10.567Z,1.93
2018-12-18T00:08:39.427Z,1.80
2018-12-18T00:11:10.179Z,1.23
2018-12-18T00:13:38.788Z,1.37
2018-12-18T00:16:07.140Z,1.60
2018-12-18T00:18:35.658Z,1.40
2018-12-18T00:21:04.292Z,1.90
2018-12-18T00:23:32.992Z,1.57
2018-12-18T00:26:01.477Z,1.30
2018-12-18T00:28:30.161Z,1.60
2018-12-18T00:30:58.507Z,1.60
2018-12-18T00:33:26.913Z,1.87
2018-12-18T00:35:55.594Z,2.23
2018-12-18T00:38:24.092Z,1.57
2018-12-18T00:40:52.587Z,1.40
2018-12-18T00:43:21.452Z,1.60
2018-12-18T00:45:50.150Z,2.87
2018-12-18T00:48:19.433Z,2.70
2018-12-18T00:50:48.530Z,2.00
2018-12-18T00:53:16.869Z,1.70
2018-12-18T00:55:45.285Z,1.90
2018-12-18T00:58:13.966Z,1.70
2018-12-18T01:00:42.237Z,2.20
2018-12-18T01:03:10.726Z,1.83
2018-12-18T01:05:39.136Z,2.20
2018-12-18T01:08:07.822Z,1.90
2018-12-18T01:10:36.365Z,2.07
2018-12-18T01:13:04.774Z,2.07
2018-12-18T01:15:33.202Z,2.43
2018-12-18T01:18:01.798Z,2.03
2018-12-18T01:20:30.485Z,2.20
2018-12-18T01:22:58.962Z,1.90
2018-12-18T01:25:27.914Z,2.27
2018-12-18T01:27:56.542Z,1.90
2018-12-18T01:30:25.015Z,2.10
2018-12-18T01:32:53.486Z,1.77
2018-12-18T01:35:22.182Z,2.23
2018-12-18T01:37:50.665Z,2.10
2018-12-18T01:40:18.732Z,2.03
2018-12-18T01:42:47.212Z,2.30
2018-12-18T01:45:15.594Z,2.60
2018-12-18T01:47:44.042Z,2.67
2018-12-18T01:50:12.442Z,2.03
2018-12-18T01:52:40.882Z,2.20
2018-12-18T01:55:09.308Z,2.93
2018-12-18T01:57:37.887Z,3.80
2018-12-18T02:00:06.773Z,3.30
2018-12-18T02:02:35.052Z,4.73
2018-12-18T02:05:03.808Z,5.23
2018-12-18T02:07:32.624Z,5.33
2018-12-18T02:10:01.317Z,7.10
2018-12-18T02:12:29.787Z,6.90
2018-12-18T02:14:58.360Z,8.00
2018-12-18T02:17:26.948Z,8.00
2018-12-18T02:19:55.197Z,10.13
2018-12-18T02:22:23.708Z,7.63
2018-12-18T02:24:52.572Z,9.13
2018-12-18T02:27:21.079Z,10.47
2018-12-18T02:29:49.559Z,9.53
2018-12-18T02:32:18.664Z,9.83
2018-12-18T02:34:47.127Z,8.60
2018-12-18T02:37:15.810Z,7.80
2018-12-18T02:39:44.293Z,7.47
2018-12-18T02:42:12.775Z,5.90
2018-12-18T02:44:41.050Z,7.00
2018-12-18T02:47:09.396Z,5.93
2018-12-18T02:49:38.419Z,4.63
2018-12-18T02:52:08.537Z,3.67
2018-12-18T02:54:36.951Z,3.27
2018-12-18T02:57:05.493Z,3.23
2018-12-18T02:59:33.723Z,4.33
2018-12-18T03:02:02.123Z,4.70
2018-12-18T03:04:31.977Z,4.57
2018-12-18T03:07:00.354Z,3.20
2018-12-18T03:09:29.080Z,4.33
2018-12-18T03:11:57.580Z,3.60
2018-12-18T03:14:27.309Z,5.03
2018-12-18T03:16:55.790Z,3.97
2018-12-18T03:19:24.463Z,4.30
2018-12-18T03:21:52.823Z,3.80
2018-12-18T03:24:21.393Z,5.00
2018-12-18T03:26:49.704Z,4.30
2018-12-18T03:29:18.347Z,4.83
2018-12-18T03:31:48.777Z,5.80
2018-12-18T03:34:17.406Z,5.13
2018-12-18T03:36:45.874Z,3.87
2018-12-18T03:39:14.355Z,5.20
2018-12-18T03:41:42.636Z,4.97
2018-12-18T03:44:11.109Z,3.30
2018-12-18T03:46:39.496Z,3.43
2018-12-18T03:49:08.021Z,4.13
2018-12-18T03:51:36.425Z,4.23
2018-12-18T03:54:04.978Z,4.77
2018-12-18T03:56:33.914Z,5.10
2018-12-18T03:59:02.271Z,5.30
2018-12-18T04:01:30.876Z,3.70
2018-12-18T04:03:59.575Z,4.10
2018-12-18T04:06:28.358Z,4.73
2018-12-18T04:08:57.013Z,4.63
2018-12-18T04:11:25.626Z,4.00
2018-12-18T04:13:55.325Z,4.50
2018-12-18T04:16:23.911Z,4.47
2018-12-18T04:18:52.491Z,4.00
2018-12-18T04:21:21.175Z,4.37
2018-12-18T04:23:49.654Z,4.30
2018-12-18T04:26:18.137Z,5.57
2018-12-18T04:28:46.408Z,4.20
2018-12-18T04:31:14.811Z,4.47
2018-12-18T04:33:43.566Z,3.30
2018-12-18T04:36:13.693Z,2.43
2018-12-18T04:38:42.165Z,2.67
2018-12-18T04:41:10.905Z,6.00
2018-12-18T04:43:39.030Z,29.60
2018-12-18T04:46:07.570Z,60.40
2018-12-18T04:48:38.156Z,28.43
2018-12-18T04:51:06.510Z,30.83
2018-12-18T04:53:35.189Z,15.17
2018-12-18T04:56:04.000Z,56.67
2018-12-18T04:58:32.465Z,40.97
2018-12-18T05:01:01.021Z,21.70
2018-12-18T05:03:29.770Z,30.73
2018-12-18T05:05:58.102Z,5.43
2018-12-18T05:08:26.496Z,2.80
2018-12-18T05:10:55.071Z,2.47
2018-12-18T05:13:23.745Z,2.47
2018-12-18T05:15:52.229Z,2.63
2018-12-18T05:18:21.122Z,3.40
2018-12-18T05:20:49.604Z,3.07
2018-12-18T05:23:18.290Z,3.07
2018-12-18T05:25:47.010Z,2.33
2018-12-18T05:28:16.310Z,2.57
2018-12-18T05:30:45.457Z,3.07
2018-12-18T05:33:14.318Z,2.60
2018-12-18T05:35:44.371Z,2.50
2018-12-18T05:38:14.528Z,4.13
2018-12-18T05:40:45.097Z,3.23
2018-12-18T05:43:13.494Z,3.53
2018-12-18T05:45:42.470Z,3.17
2018-12-18T05:48:11.068Z,3.27
2018-12-18T05:50:39.443Z,3.07
2018-12-18T05:53:08.025Z,2.70
2018-12-18T05:55:36.871Z,3.53
2018-12-18T05:58:04.984Z,4.93
2018-12-18T06:00:33.821Z,3.53
2018-12-18T06:03:02.562Z,2.77
2018-12-18T06:05:31.038Z,2.50
2018-12-18T06:08:02.992Z,2.37
2018-12-18T06:10:31.275Z,2.87
2018-12-18T06:12:59.565Z,2.97
2018-12-18T06:15:27.713Z,2.67
2018-12-18T06:17:56.245Z,2.80
2018-12-18T06:20:24.798Z,3.07
2018-12-18T06:22:53.253Z,2.23
2018-12-18T06:25:21.747Z,2.80
2018-12-18T06:27:50.427Z,2.93
2018-12-18T06:30:19.119Z,3.13
2018-12-18T06:32:47.801Z,2.73
2018-12-18T06:35:16.276Z,2.50
2018-12-18T06:37:44.818Z,3.23
2018-12-18T06:40:13.442Z,2.30
2018-12-18T06:42:42.131Z,2.80
2018-12-18T06:45:10.501Z,4.50
2018-12-18T06:47:39.203Z,4.63
2018-12-18T06:50:07.565Z,4.57
2018-12-18T06:52:36.042Z,5.53
2018-12-18T06:55:04.936Z,107.87
2018-12-18T06:57:33.566Z,83.43
2018-12-18T07:00:01.691Z,13.13
2018-12-18T07:02:31.814Z,11.10
2018-12-18T07:05:00.428Z,13.00
2018-12-18T07:07:29.195Z,10.77
2018-12-18T07:09:57.863Z,8.70
2018-12-18T07:12:26.888Z,6.47
2018-12-18T07:14:55.634Z,7.07
2018-12-18T07:17:24.528Z,8.43
2018-12-18T07:19:59.429Z,4.87
2018-12-18T07:22:29.311Z,4.40
2018-12-18T07:25:01.067Z,5.53
2018-12-18T07:27:35.408Z,4.60
2018-12-18T07:30:07.612Z,8.27
2018-12-18T07:32:39.373Z,7.50
2018-12-18T07:35:11.248Z,5.67
2018-12-18T07:37:43.204Z,4.53
2018-12-18T07:40:13.059Z,3.23
2018-12-18T07:42:47.545Z,2.93
2018-12-18T07:45:19.580Z,2.37
2018-12-18T07:47:54.036Z,2.67
2018-12-18T07:50:26.208Z,3.30
2018-12-18T07:52:57.979Z,5.53
2018-12-18T07:55:27.919Z,6.33
2018-12-18T07:57:59.613Z,5.50
2018-12-18T08:00:29.824Z,7.37
2018-12-18T08:34:34.580Z,1.90
2018-12-18T08:37:06.327Z,1.20
2018-12-18T08:39:36.200Z,2.20
2018-12-18T08:42:06.355Z,2.50
2018-12-18T08:44:38.006Z,2.80
2018-12-18T08:47:09.723Z,1.67
2018-12-18T08:49:44.362Z,1.53
2018-12-18T08:52:16.587Z,2.00
2018-12-18T08:54:48.253Z,1.93
2018-12-18T08:57:20.049Z,1.60
2018-12-18T08:59:54.490Z,1.60
2018-12-18T09:02:26.439Z,1.53
2018-12-18T09:04:56.418Z,1.93
2018-12-18T09:07:28.322Z,5.67
2018-12-18T09:10:00.079Z,16.60
2018-12-18T09:12:30.193Z,21.37
2018-12-18T09:15:02.278Z,19.87
2018-12-18T09:33:26.445Z,16.83
2018-12-18T09:35:56.530Z,17.23
2018-12-18T09:38:37.013Z,19.07
2018-12-18T09:41:14.667Z,13.77
2018-12-18T09:43:55.893Z,15.20
2018-12-18T09:46:30.830Z,12.40
2018-12-18T09:49:01.130Z,10.43
2018-12-18T09:51:35.777Z,11.13
2018-12-18T09:54:07.642Z,12.07
2018-12-18T09:56:50.675Z,13.57
2018-12-18T09:59:22.225Z,13.27
2018-12-18T10:01:54.443Z,11.93
2018-12-18T10:04:24.299Z,10.97
2018-12-18T10:06:58.994Z,11.43
2018-12-18T10:09:30.968Z,13.70
2018-12-18T10:12:05.646Z,12.67
2018-12-18T10:14:37.587Z,10.23
2018-12-18T10:17:07.650Z,10.47
2018-12-18T10:19:39.502Z,9.93
2018-12-18T10:22:14.091Z,8.57
2018-12-18T10:24:47.409Z,9.70
2018-12-18T10:27:19.140Z,7.27
2018-12-18T10:29:53.830Z,6.97
2018-12-18T10:32:23.886Z,7.10
2018-12-18T10:34:58.542Z,7.40
2018-12-18T10:37:30.756Z,6.97
2018-12-18T10:40:06.742Z,7.57
2018-12-18T10:42:39.403Z,6.57
2018-12-18T10:45:14.282Z,5.70
2018-12-18T10:47:49.047Z,6.33
2018-12-18T10:50:23.618Z,7.37
2018-12-18T11:08:42.005Z,10.23
2018-12-18T11:11:12.043Z,12.10
2018-12-18T11:13:46.482Z,11.47
2018-12-18T11:16:21.129Z,12.77
2018-12-18T11:18:55.970Z,13.07
2018-12-18T11:21:28.118Z,14.83
2018-12-18T11:23:58.043Z,19.40
2018-12-18T11:26:29.664Z,21.70
2018-12-18T11:28:59.458Z,28.33
2018-12-18T11:31:31.178Z,37.27
2018-12-18T11:34:02.822Z,34.00
2018-12-18T11:36:34.857Z,32.00
2018-12-18T11:39:09.495Z,45.97
2018-12-18T11:41:39.401Z,34.53
2018-12-18T11:44:13.650Z,34.93
2018-12-18T11:46:43.563Z,29.43
2018-12-18T11:49:15.377Z,25.57
2018-12-18T11:51:47.136Z,29.80
2018-12-18T11:54:18.932Z,29.70
2018-12-18T11:56:49.035Z,33.40
2018-12-18T11:59:21.251Z,29.40
2018-12-18T12:01:55.717Z,23.23
2018-12-18T12:04:30.494Z,28.77
2018-12-18T12:07:02.655Z,33.03
2018-12-18T12:09:33.713Z,28.50
2018-12-18T12:12:03.570Z,34.53
2018-12-18T12:14:38.333Z,33.27
2018-12-18T12:17:10.083Z,37.43
2018-12-18T12:19:39.882Z,31.37
2018-12-18T12:22:11.543Z,34.97
2018-12-18T12:24:46.052Z,41.90
2018-12-18T12:27:26.214Z,28.77
2018-12-18T12:29:58.644Z,36.43
2018-12-18T12:32:30.377Z,29.93
2018-12-18T12:35:00.229Z,36.07
2018-12-18T12:37:31.903Z,41.07
2018-12-18T12:53:02.640Z,46.17
2018-12-18T12:55:37.254Z,59.10
2018-12-18T12:58:12.083Z,52.10
2018-12-18T13:00:46.663Z,47.23
2018-12-18T13:03:18.933Z,41.93
2018-12-18T13:05:50.593Z,36.87
2018-12-18T13:08:25.040Z,56.97
2018-12-18T13:10:59.561Z,40.03
2018-12-18T13:13:37.867Z,38.33
2018-12-18T13:16:12.167Z,33.07
2018-12-18T13:18:43.762Z,34.50
2018-12-18T13:21:18.323Z,54.70
2018-12-18T13:23:50.472Z,27.37
2018-12-18T13:26:22.183Z,30.00
2018-12-18T13:28:52.101Z,28.97
2018-12-18T13:31:26.470Z,24.10
2018-12-18T13:34:02.042Z,25.17
2018-12-18T13:36:32.042Z,28.13
2018-12-18T13:39:06.850Z,25.67
2018-12-18T13:41:41.521Z,24.73
2018-12-18T13:44:11.454Z,23.83
2018-12-18T13:46:41.507Z,24.00
2018-12-18T13:49:13.260Z,24.03
2018-12-18T13:51:43.418Z,25.30
2018-12-18T13:54:15.254Z,20.23
2018-12-18T13:56:46.911Z,21.77
2018-12-18T13:59:16.791Z,20.80
2018-12-18T14:01:51.115Z,22.00
2018-12-18T14:04:21.137Z,22.63
2018-12-18T14:06:55.727Z,20.37
2018-12-18T14:38:53.970Z,20.43
2018-12-18T14:41:28.728Z,20.50
2018-12-18T14:44:00.890Z,19.40
2018-12-18T14:46:33.251Z,20.20
2018-12-18T14:49:04.961Z,19.03
2018-12-18T14:51:39.506Z,22.40
2018-12-18T14:54:14.671Z,21.70
2018-12-18T14:56:49.021Z,20.53
2018-12-18T14:59:21.182Z,20.70
2018-12-18T15:01:51.594Z,19.40
2018-12-18T15:04:23.185Z,19.37
2018-12-18T15:06:53.084Z,20.27
2018-12-18T15:09:27.526Z,20.80
2018-12-18T15:11:59.753Z,18.87
2018-12-18T15:14:29.669Z,19.40
2018-12-18T15:17:01.293Z,20.07
2018-12-18T15:19:33.408Z,18.73
2018-12-18T15:22:08.057Z,19.83
2018-12-18T15:24:42.753Z,17.63
2018-12-18T15:27:12.718Z,22.07
2018-12-18T15:29:44.527Z,20.00
2018-12-18T15:32:14.607Z,23.23
2018-12-18T15:34:49.136Z,21.40
2018-12-18T15:37:21.250Z,20.87
2018-12-18T15:39:51.402Z,23.57
2018-12-18T15:42:23.084Z,23.13
2018-12-18T15:44:53.110Z,24.83
2018-12-18T15:47:27.656Z,26.10
2018-12-18T15:49:57.868Z,24.43
2018-12-18T15:52:27.615Z,22.10
2018-12-18T15:54:57.594Z,25.33
2018-12-18T15:57:28.767Z,25.87
2018-12-18T16:00:00.397Z,21.67
2018-12-18T16:02:34.890Z,22.80
2018-12-18T16:05:06.962Z,23.33
2018-12-18T16:07:41.566Z,20.43
2018-12-18T16:10:11.711Z,20.33
2018-12-18T16:12:44.826Z,20.67
2018-12-18T16:15:19.361Z,20.57
2018-12-18T16:17:55.131Z,21.93
2018-12-18T16:20:27.426Z,23.43
2018-12-18T16:23:01.807Z,20.20
2018-12-18T16:25:33.927Z,21.60
2018-12-18T16:28:04.129Z,20.33
2018-12-18T16:30:36.190Z,22.90
2018-12-18T16:33:06.135Z,35.33
2018-12-18T16:35:36.059Z,28.93
2018-12-18T16:38:10.566Z,51.60
2018-12-18T16:40:40.714Z,42.73
2018-12-18T16:43:15.258Z,38.17
2018-12-18T16:45:45.478Z,49.40
2018-12-18T16:48:17.144Z,29.17
2018-12-18T16:50:51.808Z,57.80
2018-12-18T16:53:26.369Z,43.63
2018-12-18T16:55:58.590Z,47.10
2018-12-18T16:58:29.457Z,29.13
2018-12-18T17:01:01.613Z,28.03
2018-12-18T17:03:35.993Z,21.27
2018-12-18T17:06:06.033Z,20.00
2018-12-18T17:08:40.325Z,20.77
2018-12-18T17:11:10.490Z,21.00
2018-12-18T17:13:40.348Z,23.70
2018-12-18T17:16:11.919Z,19.83
2018-12-18T17:18:43.660Z,18.57
2018-12-18T17:21:18.027Z,20.03
2018-12-18T17:23:48.215Z,16.00
2018-12-18T17:26:20.058Z,15.23
2018-12-18T17:28:54.513Z,16.83
2018-12-18T17:31:26.690Z,17.00
2018-12-18T17:33:58.522Z,18.50
2018-12-18T17:36:30.126Z,17.30
2018-12-18T17:39:00.140Z,17.03
2018-12-18T17:41:31.847Z,14.97
2018-12-18T17:44:03.653Z,19.93
2018-12-18T17:46:35.303Z,19.70
2018-12-18T17:49:07.342Z,18.53
2018-12-18T17:51:41.927Z,19.20
2018-12-18T17:54:11.967Z,18.70
2018-12-18T17:56:46.489Z,18.17
2018-12-18T17:59:21.241Z,17.67
2018-12-18T18:01:53.487Z,17.63
2018-12-18T18:04:27.955Z,18.67
2018-12-18T18:07:02.480Z,20.23
2018-12-18T18:09:32.563Z,22.07
2018-12-18T18:12:06.767Z,21.30
2018-12-18T18:14:36.862Z,24.37
2018-12-18T18:17:08.571Z,21.73
2018-12-18T18:19:40.401Z,23.93
2018-12-18T18:22:12.055Z,20.83
2018-12-18T18:24:46.578Z,19.63
2018-12-18T18:27:18.322Z,19.40
2018-12-18T18:29:52.779Z,24.80
2018-12-18T18:32:24.890Z,23.40
2018-12-18T18:34:59.313Z,25.07
2018-12-18T18:37:34.318Z,28.50
2018-12-18T18:40:06.583Z,23.00
2018-12-18T18:55:36.562Z,24.67
2018-12-18T18:58:11.548Z,27.07
2018-12-18T19:00:43.716Z,31.77
2018-12-18T19:03:16.079Z,40.57
2018-12-18T19:05:50.394Z,35.70
2018-12-18T19:08:25.053Z,43.27
2018-12-18T19:10:59.695Z,37.43
2018-12-18T19:13:31.818Z,37.23
2018-12-18T19:16:03.631Z,46.27
2018-12-18T19:18:38.040Z,37.77
2018-12-18T19:21:12.750Z,45.53
2018-12-18T19:23:47.511Z,57.17
2018-12-18T19:26:22.254Z,39.37
2018-12-18T19:28:52.527Z,56.90
2018-12-18T19:31:28.028Z,46.43
2018-12-18T19:33:58.328Z,46.67
2018-12-18T19:36:33.052Z,53.97
2018-12-18T19:39:07.720Z,41.83
2018-12-18T19:41:44.433Z,30.17
2018-12-18T19:44:16.686Z,35.63
2018-12-18T19:46:51.122Z,43.83
2018-12-18T19:49:21.296Z,45.77
2018-12-18T19:51:53.059Z,38.40
2018-12-18T19:54:25.760Z,42.73
2018-12-18T19:56:57.487Z,43.80
2018-12-18T19:59:30.215Z,42.43
2018-12-18T20:02:05.479Z,51.00
2018-12-18T20:04:41.182Z,46.57
2018-12-18T20:07:16.106Z,43.73
2018-12-18T20:09:50.564Z,39.70
2018-12-18T20:12:25.471Z,24.37
2018-12-18T20:15:00.079Z,25.03
2018-12-18T20:17:30.341Z,25.40
2018-12-18T20:20:02.939Z,21.47
2018-12-18T20:22:38.455Z,21.60
2018-12-18T20:25:13.319Z,23.07
2018-12-18T20:27:45.468Z,23.53
2018-12-18T20:30:17.578Z,22.17
2018-12-18T20:32:48.433Z,22.33
2018-12-18T20:35:20.404Z,22.03
2018-12-18T20:37:52.236Z,21.30
2018-12-18T20:40:24.366Z,19.13
2018-12-18T20:42:54.816Z,21.03
2018-12-18T20:45:29.467Z,22.37
2018-12-18T20:48:04.151Z,26.93
2018-12-18T20:50:36.182Z,36.17
2018-12-18T20:53:06.936Z,47.13
2018-12-18T20:55:42.381Z,47.40
2018-12-18T20:58:15.430Z,39.33
2018-12-18T21:00:47.544Z,78.47
2018-12-18T21:03:18.286Z,42.03
2018-12-18T21:05:52.923Z,48.77
2018-12-18T21:08:27.511Z,37.13
2018-12-18T21:10:59.409Z,36.33
2018-12-18T21:13:32.114Z,27.40
2018-12-18T21:16:03.896Z,39.80
2018-12-18T21:18:38.483Z,38.30
2018-12-18T21:21:15.223Z,45.93
2018-12-18T21:23:41.058Z,39.97
2018-12-18T21:26:15.381Z,58.40
2018-12-18T21:28:45.639Z,54.83
2018-12-18T21:31:20.021Z,40.67
2018-12-18T21:36:20.139Z,73.67
2018-12-18T21:38:53.441Z,60.13
2018-12-18T21:41:26.667Z,40.73
2018-12-18T21:43:57.691Z,41.70
2018-12-18T21:46:33.316Z,40.87
2018-12-18T21:49:04.589Z,47.90
2018-12-18T21:51:40.186Z,59.10
2018-12-18T21:54:13.695Z,55.37
2018-12-18T21:56:45.792Z,30.70
2018-12-18T21:59:17.899Z,29.43
2018-12-18T22:01:51.116Z,36.17
2018-12-18T22:04:26.423Z,30.70
2018-12-18T22:07:01.292Z,33.93
2018-12-18T22:09:34.578Z,38.47
2018-12-18T22:12:05.296Z,33.87
2018-12-18T22:14:37.981Z,31.97
2018-12-18T22:17:13.009Z,30.27
2018-12-18T22:19:45.116Z,25.97
2018-12-18T22:22:15.049Z,25.50
2018-12-18T22:24:45.167Z,28.50
2018-12-18T22:27:17.038Z,33.33
2018-12-18T22:29:49.116Z,28.23
2018-12-18T22:32:19.731Z,31.10
2018-12-18T22:34:49.636Z,35.30
2018-12-18T22:37:18.113Z,32.63
2018-12-18T22:39:46.598Z,32.80
2018-12-18T22:52:55.768Z,23.93
2018-12-18T22:55:23.959Z,24.13
2018-12-18T22:57:53.268Z,21.97
2018-12-18T23:00:23.792Z,23.47
2018-12-18T23:02:54.113Z,24.83
2018-12-18T23:05:22.827Z,21.37
2018-12-18T23:07:53.125Z,20.57
2018-12-18T23:10:21.401Z,20.77
2018-12-18T23:12:49.880Z,20.63
2018-12-18T23:15:18.769Z,19.73
2018-12-18T23:17:47.558Z,17.90
2018-12-18T23:20:15.944Z,18.97
2018-12-18T23:22:45.439Z,17.27
2018-12-18T23:25:13.705Z,17.70
2018-12-18T23:27:42.189Z,19.00
2018-12-18T23:30:10.768Z,17.13
2018-12-18T23:32:39.152Z,18.87
2018-12-18T23:35:07.627Z,18.77
2018-12-18T23:37:36.111Z,17.37
2018-12-18T23:40:04.587Z,13.50
2018-12-18T23:42:33.223Z,15.93
2018-12-18T23:45:04.337Z,14.20
2018-12-18T23:47:32.836Z,14.20
2018-12-18T23:50:01.168Z,13.50
2018-12-18T23:52:31.087Z,12.80
2018-12-18T23:54:59.966Z,14.10
2018-12-18T23:57:28.450Z,15.20
2018-12-18T23:59:57.063Z,14.73
